sensor_id;sensor_type;location;lat;lon;timestamp;P1;durP1;ratioP1;P2;durP2;ratioP2
3443;SDS011;1736;52.068;6.968;2022-11-20T00:00:10;22.23;;;13.13;;
3443;SDS011;1736;52.068;6.968;2022-11-20T00:02:37;21.70;;;12.20;;
3443;SDS011;1736;52.068;6.968;2022-11-20T00:05:04;20.57;;;12.43;;
3443;SDS011;1736;52.068;6.968;2022-11-20T00:07:31;23.50;;;13.80;;
3443;SDS011;1736;52.068;6.968;2022-11-20T00:09:57;20.27;;;12.30;;
3443;SDS011;1736;52.068;6.968;2022-11-20T00:12:24;26.50;;;13.53;;
3443;SDS011;1736;52.068;6.968;2022-11-20T00:14:50;21.60;;;12.70;;
3443;SDS011;1736;52.068;6.968;2022-11-20T00:17:18;26.00;;;12.80;;
3443;SDS011;1736;52.068;6.968;2022-11-20T00:19:45;26.80;;;13.77;;
3443;SDS011;1736;52.068;6.968;2022-11-20T00:22:11;25.50;;;14.40;;
3443;SDS011;1736;52.068;6.968;2022-11-20T00:24:38;20.57;;;13.43;;
3443;SDS011;1736;52.068;6.968;2022-11-20T00:27:04;21.70;;;13.33;;
3443;SDS011;1736;52.068;6.968;2022-11-20T00:29:31;26.50;;;15.00;;
3443;SDS011;1736;52.068;6.968;2022-11-20T00:31:57;26.33;;;15.47;;
3443;SDS011;1736;52.068;6.968;2022-11-20T00:34:25;24.00;;;13.67;;
3443;SDS011;1736;52.068;6.968;2022-11-20T00:36:51;28.67;;;15.60;;
3443;SDS011;1736;52.068;6.968;2022-11-20T00:39:18;25.70;;;13.97;;
3443;SDS011;1736;52.068;6.968;2022-11-20T00:41:44;25.03;;;14.70;;
3443;SDS011;1736;52.068;6.968;2022-11-20T00:44:11;26.10;;;15.60;;
3443;SDS011;1736;52.068;6.968;2022-11-20T00:46:37;28.23;;;14.73;;
3443;SDS011;1736;52.068;6.968;2022-11-20T00:49:04;24.00;;;13.03;;
3443;SDS011;1736;52.068;6.968;2022-11-20T00:51:32;24.43;;;13.03;;
3443;SDS011;1736;52.068;6.968;2022-11-20T00:53:58;25.53;;;13.50;;
3443;SDS011;1736;52.068;6.968;2022-11-20T00:56:27;27.30;;;14.80;;
3443;SDS011;1736;52.068;6.968;2022-11-20T00:58:53;24.87;;;14.00;;
3443;SDS011;1736;52.068;6.968;2022-11-20T01:01:20;28.57;;;14.50;;
3443;SDS011;1736;52.068;6.968;2022-11-20T01:03:49;27.57;;;15.63;;
3443;SDS011;1736;52.068;6.968;2022-11-20T01:06:18;27.33;;;13.87;;
3443;SDS011;1736;52.068;6.968;2022-11-20T01:08:47;27.03;;;14.70;;
3443;SDS011;1736;52.068;6.968;2022-11-20T01:11:17;21.83;;;13.77;;
3443;SDS011;1736;52.068;6.968;2022-11-20T01:13:45;28.43;;;15.33;;
3443;SDS011;1736;52.068;6.968;2022-11-20T01:16:13;27.40;;;15.40;;
3443;SDS011;1736;52.068;6.968;2022-11-20T01:18:42;33.23;;;16.20;;
3443;SDS011;1736;52.068;6.968;2022-11-20T01:21:10;22.40;;;12.77;;
3443;SDS011;1736;52.068;6.968;2022-11-20T01:23:38;27.17;;;14.90;;
3443;SDS011;1736;52.068;6.968;2022-11-20T01:26:08;28.43;;;15.40;;
3443;SDS011;1736;52.068;6.968;2022-11-20T01:28:36;25.07;;;14.40;;
3443;SDS011;1736;52.068;6.968;2022-11-20T01:31:10;25.83;;;14.80;;
3443;SDS011;1736;52.068;6.968;2022-11-20T01:33:38;25.27;;;14.57;;
3443;SDS011;1736;52.068;6.968;2022-11-20T01:36:05;30.80;;;15.43;;
3443;SDS011;1736;52.068;6.968;2022-11-20T01:38:32;25.17;;;14.07;;
3443;SDS011;1736;52.068;6.968;2022-11-20T01:40:59;24.43;;;13.93;;
3443;SDS011;1736;52.068;6.968;2022-11-20T01:43:27;24.33;;;14.57;;
3443;SDS011;1736;52.068;6.968;2022-11-20T01:46:01;25.53;;;14.97;;
3443;SDS011;1736;52.068;6.968;2022-11-20T01:48:32;25.20;;;13.70;;
3443;SDS011;1736;52.068;6.968;2022-11-20T01:51:02;23.70;;;13.03;;
3443;SDS011;1736;52.068;6.968;2022-11-20T01:53:32;25.40;;;14.03;;
3443;SDS011;1736;52.068;6.968;2022-11-20T01:56:02;21.47;;;13.97;;
3443;SDS011;1736;52.068;6.968;2022-11-20T01:58:36;25.30;;;14.40;;
3443;SDS011;1736;52.068;6.968;2022-11-20T02:01:07;23.60;;;13.10;;
3443;SDS011;1736;52.068;6.968;2022-11-20T02:03:33;25.00;;;14.33;;
3443;SDS011;1736;52.068;6.968;2022-11-20T02:06:02;23.40;;;13.33;;
3443;SDS011;1736;52.068;6.968;2022-11-20T02:08:33;22.67;;;13.43;;
3443;SDS011;1736;52.068;6.968;2022-11-20T02:11:00;23.03;;;13.70;;
3443;SDS011;1736;52.068;6.968;2022-11-20T02:13:27;21.10;;;13.53;;
3443;SDS011;1736;52.068;6.968;2022-11-20T02:16:12;26.10;;;13.90;;
3443;SDS011;1736;52.068;6.968;2022-11-20T02:18:41;23.63;;;13.63;;
3443;SDS011;1736;52.068;6.968;2022-11-20T02:21:09;22.63;;;14.33;;
3443;SDS011;1736;52.068;6.968;2022-11-20T02:23:52;21.50;;;13.80;;
3443;SDS011;1736;52.068;6.968;2022-11-20T02:26:26;25.57;;;13.27;;
3443;SDS011;1736;52.068;6.968;2022-11-20T02:28:54;24.50;;;13.73;;
3443;SDS011;1736;52.068;6.968;2022-11-20T02:31:20;23.00;;;13.47;;
3443;SDS011;1736;52.068;6.968;2022-11-20T02:33:47;28.07;;;15.27;;
3443;SDS011;1736;52.068;6.968;2022-11-20T02:36:14;24.40;;;14.20;;
3443;SDS011;1736;52.068;6.968;2022-11-20T02:38:42;20.80;;;12.10;;
3443;SDS011;1736;52.068;6.968;2022-11-20T02:41:11;24.40;;;13.87;;
3443;SDS011;1736;52.068;6.968;2022-11-20T02:43:37;26.93;;;14.50;;
3443;SDS011;1736;52.068;6.968;2022-11-20T02:46:07;20.90;;;12.33;;
3443;SDS011;1736;52.068;6.968;2022-11-20T02:48:34;24.77;;;12.97;;
3443;SDS011;1736;52.068;6.968;2022-11-20T02:51:01;21.53;;;13.13;;
3443;SDS011;1736;52.068;6.968;2022-11-20T02:53:27;25.47;;;13.67;;
3443;SDS011;1736;52.068;6.968;2022-11-20T02:55:54;22.70;;;12.60;;
3443;SDS011;1736;52.068;6.968;2022-11-20T02:58:22;23.87;;;12.20;;
3443;SDS011;1736;52.068;6.968;2022-11-20T03:00:49;19.00;;;11.60;;
3443;SDS011;1736;52.068;6.968;2022-11-20T03:03:15;22.13;;;12.57;;
3443;SDS011;1736;52.068;6.968;2022-11-20T03:05:42;21.50;;;12.33;;
3443;SDS011;1736;52.068;6.968;2022-11-20T03:08:09;20.93;;;11.43;;
3443;SDS011;1736;52.068;6.968;2022-11-20T03:10:35;21.20;;;10.50;;
3443;SDS011;1736;52.068;6.968;2022-11-20T03:13:02;18.27;;;9.57;;
3443;SDS011;1736;52.068;6.968;2022-11-20T03:15:30;17.57;;;9.53;;
3443;SDS011;1736;52.068;6.968;2022-11-20T03:17:56;14.03;;;9.10;;
3443;SDS011;1736;52.068;6.968;2022-11-20T03:20:23;14.23;;;8.70;;
3443;SDS011;1736;52.068;6.968;2022-11-20T03:22:50;13.77;;;8.80;;
3443;SDS011;1736;52.068;6.968;2022-11-20T03:25:17;19.83;;;10.20;;
3443;SDS011;1736;52.068;6.968;2022-11-20T03:27:43;14.77;;;8.97;;
3443;SDS011;1736;52.068;6.968;2022-11-20T03:30:10;15.90;;;9.30;;
3443;SDS011;1736;52.068;6.968;2022-11-20T03:32:38;14.27;;;8.37;;
3443;SDS011;1736;52.068;6.968;2022-11-20T03:35:05;16.90;;;9.30;;
3443;SDS011;1736;52.068;6.968;2022-11-20T03:37:32;16.47;;;8.67;;
3443;SDS011;1736;52.068;6.968;2022-11-20T03:39:58;17.07;;;9.87;;
3443;SDS011;1736;52.068;6.968;2022-11-20T03:42:25;14.60;;;9.10;;
3443;SDS011;1736;52.068;6.968;2022-11-20T03:45:09;14.00;;;8.63;;
3443;SDS011;1736;52.068;6.968;2022-11-20T03:47:36;17.07;;;9.40;;
3443;SDS011;1736;52.068;6.968;2022-11-20T03:50:04;13.07;;;8.30;;
3443;SDS011;1736;52.068;6.968;2022-11-20T03:52:31;15.20;;;8.60;;
3443;SDS011;1736;52.068;6.968;2022-11-20T03:54:58;14.37;;;8.70;;
3443;SDS011;1736;52.068;6.968;2022-11-20T03:57:24;15.20;;;9.13;;
3443;SDS011;1736;52.068;6.968;2022-11-20T03:59:51;21.50;;;9.93;;
3443;SDS011;1736;52.068;6.968;2022-11-20T04:02:17;18.90;;;10.87;;
3443;SDS011;1736;52.068;6.968;2022-11-20T04:04:44;21.93;;;12.60;;
3443;SDS011;1736;52.068;6.968;2022-11-20T04:07:12;17.90;;;11.43;;
3443;SDS011;1736;52.068;6.968;2022-11-20T04:09:38;18.50;;;11.40;;
3443;SDS011;1736;52.068;6.968;2022-11-20T04:12:05;18.53;;;11.50;;
3443;SDS011;1736;52.068;6.968;2022-11-20T04:14:31;27.03;;;13.00;;
3443;SDS011;1736;52.068;6.968;2022-11-20T04:16:58;24.20;;;13.20;;
3443;SDS011;1736;52.068;6.968;2022-11-20T04:19:24;19.83;;;12.20;;
3443;SDS011;1736;52.068;6.968;2022-11-20T04:21:51;20.37;;;11.30;;
3443;SDS011;1736;52.068;6.968;2022-11-20T04:24:19;19.47;;;12.50;;
3443;SDS011;1736;52.068;6.968;2022-11-20T04:26:46;21.70;;;12.47;;
3443;SDS011;1736;52.068;6.968;2022-11-20T04:29:12;20.03;;;11.83;;
3443;SDS011;1736;52.068;6.968;2022-11-20T04:31:39;18.03;;;11.63;;
3443;SDS011;1736;52.068;6.968;2022-11-20T04:34:06;22.63;;;12.10;;
3443;SDS011;1736;52.068;6.968;2022-11-20T04:36:33;22.80;;;13.70;;
3443;SDS011;1736;52.068;6.968;2022-11-20T04:39:00;29.53;;;12.80;;
3443;SDS011;1736;52.068;6.968;2022-11-20T04:41:30;23.67;;;12.90;;
3443;SDS011;1736;52.068;6.968;2022-11-20T04:43:59;21.73;;;12.17;;
3443;SDS011;1736;52.068;6.968;2022-11-20T04:46:28;21.53;;;12.80;;
3443;SDS011;1736;52.068;6.968;2022-11-20T04:48:56;21.23;;;11.83;;
3443;SDS011;1736;52.068;6.968;2022-11-20T04:51:23;22.03;;;11.90;;
3443;SDS011;1736;52.068;6.968;2022-11-20T04:53:50;21.33;;;12.17;;
3443;SDS011;1736;52.068;6.968;2022-11-20T04:56:16;21.93;;;12.73;;
3443;SDS011;1736;52.068;6.968;2022-11-20T04:58:44;21.97;;;12.00;;
3443;SDS011;1736;52.068;6.968;2022-11-20T05:01:11;20.53;;;11.90;;
3443;SDS011;1736;52.068;6.968;2022-11-20T05:03:39;19.90;;;11.97;;
3443;SDS011;1736;52.068;6.968;2022-11-20T05:06:06;16.87;;;11.17;;
3443;SDS011;1736;52.068;6.968;2022-11-20T05:08:33;20.40;;;11.37;;
3443;SDS011;1736;52.068;6.968;2022-11-20T05:11:01;14.93;;;9.80;;
3443;SDS011;1736;52.068;6.968;2022-11-20T05:13:28;16.63;;;10.10;;
3443;SDS011;1736;52.068;6.968;2022-11-20T05:15:59;18.63;;;10.63;;
3443;SDS011;1736;52.068;6.968;2022-11-20T05:18:27;17.40;;;10.17;;
3443;SDS011;1736;52.068;6.968;2022-11-20T05:20:54;15.00;;;9.90;;
3443;SDS011;1736;52.068;6.968;2022-11-20T05:23:21;14.80;;;9.33;;
3443;SDS011;1736;52.068;6.968;2022-11-20T05:25:48;14.63;;;9.10;;
3443;SDS011;1736;52.068;6.968;2022-11-20T05:28:17;16.67;;;8.80;;
3443;SDS011;1736;52.068;6.968;2022-11-20T05:30:43;14.30;;;9.03;;
3443;SDS011;1736;52.068;6.968;2022-11-20T05:33:11;13.63;;;8.47;;
3443;SDS011;1736;52.068;6.968;2022-11-20T05:35:38;15.10;;;9.57;;
3443;SDS011;1736;52.068;6.968;2022-11-20T05:38:04;16.00;;;9.73;;
3443;SDS011;1736;52.068;6.968;2022-11-20T05:40:31;13.33;;;8.30;;
3443;SDS011;1736;52.068;6.968;2022-11-20T05:42:58;15.53;;;9.73;;
3443;SDS011;1736;52.068;6.968;2022-11-20T05:45:25;19.00;;;9.90;;
3443;SDS011;1736;52.068;6.968;2022-11-20T05:47:52;17.67;;;9.90;;
3443;SDS011;1736;52.068;6.968;2022-11-20T05:50:19;15.13;;;9.23;;
3443;SDS011;1736;52.068;6.968;2022-11-20T05:52:46;13.63;;;9.27;;
3443;SDS011;1736;52.068;6.968;2022-11-20T05:55:12;15.70;;;9.03;;
3443;SDS011;1736;52.068;6.968;2022-11-20T05:57:39;19.97;;;10.33;;
3443;SDS011;1736;52.068;6.968;2022-11-20T06:00:06;15.20;;;9.30;;
3443;SDS011;1736;52.068;6.968;2022-11-20T06:02:34;16.10;;;9.60;;
3443;SDS011;1736;52.068;6.968;2022-11-20T06:05:00;17.33;;;9.67;;
3443;SDS011;1736;52.068;6.968;2022-11-20T06:07:28;14.57;;;9.07;;
3443;SDS011;1736;52.068;6.968;2022-11-20T06:09:55;17.13;;;9.10;;
3443;SDS011;1736;52.068;6.968;2022-11-20T06:12:21;13.03;;;7.87;;
3443;SDS011;1736;52.068;6.968;2022-11-20T06:14:48;15.60;;;8.90;;
3443;SDS011;1736;52.068;6.968;2022-11-20T06:17:14;15.43;;;9.27;;
3443;SDS011;1736;52.068;6.968;2022-11-20T06:19:41;19.53;;;9.63;;
3443;SDS011;1736;52.068;6.968;2022-11-20T06:22:07;16.37;;;9.33;;
3443;SDS011;1736;52.068;6.968;2022-11-20T06:24:35;17.83;;;9.90;;
3443;SDS011;1736;52.068;6.968;2022-11-20T06:27:02;18.40;;;10.23;;
3443;SDS011;1736;52.068;6.968;2022-11-20T06:29:28;14.47;;;9.10;;
3443;SDS011;1736;52.068;6.968;2022-11-20T06:31:55;17.07;;;8.93;;
3443;SDS011;1736;52.068;6.968;2022-11-20T06:34:21;19.87;;;10.00;;
3443;SDS011;1736;52.068;6.968;2022-11-20T06:36:48;15.83;;;9.00;;
3443;SDS011;1736;52.068;6.968;2022-11-20T06:39:14;19.33;;;10.20;;
3443;SDS011;1736;52.068;6.968;2022-11-20T06:41:42;17.77;;;9.40;;
3443;SDS011;1736;52.068;6.968;2022-11-20T06:44:09;15.17;;;9.50;;
3443;SDS011;1736;52.068;6.968;2022-11-20T06:46:36;16.63;;;10.13;;
3443;SDS011;1736;52.068;6.968;2022-11-20T06:49:02;15.50;;;9.80;;
3443;SDS011;1736;52.068;6.968;2022-11-20T06:51:29;21.00;;;10.43;;
3443;SDS011;1736;52.068;6.968;2022-11-20T06:53:55;16.83;;;10.20;;
3443;SDS011;1736;52.068;6.968;2022-11-20T06:56:22;22.80;;;11.50;;
3443;SDS011;1736;52.068;6.968;2022-11-20T06:58:50;22.40;;;12.20;;
3443;SDS011;1736;52.068;6.968;2022-11-20T07:01:16;24.93;;;13.10;;
3443;SDS011;1736;52.068;6.968;2022-11-20T07:03:43;25.30;;;13.70;;
3443;SDS011;1736;52.068;6.968;2022-11-20T07:06:09;24.43;;;14.83;;
3443;SDS011;1736;52.068;6.968;2022-11-20T07:08:36;31.80;;;15.53;;
3443;SDS011;1736;52.068;6.968;2022-11-20T07:11:04;33.43;;;17.00;;
3443;SDS011;1736;52.068;6.968;2022-11-20T07:13:32;28.07;;;16.40;;
3443;SDS011;1736;52.068;6.968;2022-11-20T07:16:01;24.43;;;13.67;;
3443;SDS011;1736;52.068;6.968;2022-11-20T07:18:29;18.87;;;10.53;;
3443;SDS011;1736;52.068;6.968;2022-11-20T07:20:59;19.87;;;11.20;;
3443;SDS011;1736;52.068;6.968;2022-11-20T07:23:26;18.13;;;10.03;;
3443;SDS011;1736;52.068;6.968;2022-11-20T07:25:52;20.70;;;10.60;;
3443;SDS011;1736;52.068;6.968;2022-11-20T07:28:19;20.00;;;10.93;;
3443;SDS011;1736;52.068;6.968;2022-11-20T07:30:49;17.10;;;10.20;;
3443;SDS011;1736;52.068;6.968;2022-11-20T07:33:17;19.17;;;11.10;;
3443;SDS011;1736;52.068;6.968;2022-11-20T07:35:44;22.47;;;11.20;;
3443;SDS011;1736;52.068;6.968;2022-11-20T07:38:11;18.67;;;10.97;;
3443;SDS011;1736;52.068;6.968;2022-11-20T07:40:38;17.30;;;10.87;;
3443;SDS011;1736;52.068;6.968;2022-11-20T07:43:05;18.53;;;10.53;;
3443;SDS011;1736;52.068;6.968;2022-11-20T07:45:31;19.13;;;11.30;;
3443;SDS011;1736;52.068;6.968;2022-11-20T07:47:58;20.00;;;11.70;;
3443;SDS011;1736;52.068;6.968;2022-11-20T07:50:26;18.13;;;10.57;;
3443;SDS011;1736;52.068;6.968;2022-11-20T07:52:52;20.90;;;11.03;;
3443;SDS011;1736;52.068;6.968;2022-11-20T07:55:26;17.70;;;11.47;;
3443;SDS011;1736;52.068;6.968;2022-11-20T07:57:54;23.23;;;10.67;;
3443;SDS011;1736;52.068;6.968;2022-11-20T08:00:21;22.37;;;12.27;;
3443;SDS011;1736;52.068;6.968;2022-11-20T08:02:47;18.67;;;10.70;;
3443;SDS011;1736;52.068;6.968;2022-11-20T08:05:14;18.93;;;11.50;;
3443;SDS011;1736;52.068;6.968;2022-11-20T08:07:42;21.13;;;12.53;;
3443;SDS011;1736;52.068;6.968;2022-11-20T08:10:10;19.00;;;12.00;;
3443;SDS011;1736;52.068;6.968;2022-11-20T08:12:43;19.87;;;12.90;;
3443;SDS011;1736;52.068;6.968;2022-11-20T08:15:28;22.07;;;11.53;;
3443;SDS011;1736;52.068;6.968;2022-11-20T08:17:58;21.43;;;12.37;;
3443;SDS011;1736;52.068;6.968;2022-11-20T08:20:26;20.67;;;12.47;;
3443;SDS011;1736;52.068;6.968;2022-11-20T08:22:56;22.20;;;12.57;;
3443;SDS011;1736;52.068;6.968;2022-11-20T08:25:24;22.60;;;12.77;;
3443;SDS011;1736;52.068;6.968;2022-11-20T08:27:50;27.00;;;14.70;;
3443;SDS011;1736;52.068;6.968;2022-11-20T08:30:17;22.40;;;12.83;;
3443;SDS011;1736;52.068;6.968;2022-11-20T08:32:43;25.13;;;14.33;;
3443;SDS011;1736;52.068;6.968;2022-11-20T08:35:10;26.10;;;15.00;;
3443;SDS011;1736;52.068;6.968;2022-11-20T08:37:36;28.20;;;14.83;;
3443;SDS011;1736;52.068;6.968;2022-11-20T08:40:08;29.63;;;14.33;;
3443;SDS011;1736;52.068;6.968;2022-11-20T08:42:36;24.90;;;14.40;;
3443;SDS011;1736;52.068;6.968;2022-11-20T08:45:02;32.73;;;18.03;;
3443;SDS011;1736;52.068;6.968;2022-11-20T08:47:29;25.20;;;14.77;;
3443;SDS011;1736;52.068;6.968;2022-11-20T08:49:56;27.37;;;15.77;;
3443;SDS011;1736;52.068;6.968;2022-11-20T08:52:23;28.63;;;15.80;;
3443;SDS011;1736;52.068;6.968;2022-11-20T08:54:49;33.60;;;15.63;;
3443;SDS011;1736;52.068;6.968;2022-11-20T08:57:17;32.73;;;16.77;;
3443;SDS011;1736;52.068;6.968;2022-11-20T08:59:43;27.20;;;14.80;;
3443;SDS011;1736;52.068;6.968;2022-11-20T09:02:10;29.87;;;15.10;;
3443;SDS011;1736;52.068;6.968;2022-11-20T09:04:37;23.53;;;14.43;;
3443;SDS011;1736;52.068;6.968;2022-11-20T09:07:03;27.47;;;15.73;;
3443;SDS011;1736;52.068;6.968;2022-11-20T09:09:30;29.50;;;17.03;;
3443;SDS011;1736;52.068;6.968;2022-11-20T09:11:57;28.30;;;15.33;;
3443;SDS011;1736;52.068;6.968;2022-11-20T09:14:25;26.33;;;15.33;;
3443;SDS011;1736;52.068;6.968;2022-11-20T09:16:54;34.37;;;17.63;;
3443;SDS011;1736;52.068;6.968;2022-11-20T09:19:20;30.83;;;16.70;;
3443;SDS011;1736;52.068;6.968;2022-11-20T09:21:47;30.40;;;17.00;;
3443;SDS011;1736;52.068;6.968;2022-11-20T09:24:13;35.97;;;18.30;;
3443;SDS011;1736;52.068;6.968;2022-11-20T09:26:40;31.73;;;18.20;;
3443;SDS011;1736;52.068;6.968;2022-11-20T09:29:06;35.60;;;17.13;;
3443;SDS011;1736;52.068;6.968;2022-11-20T09:31:34;30.63;;;17.70;;
3443;SDS011;1736;52.068;6.968;2022-11-20T09:34:01;30.17;;;17.67;;
3443;SDS011;1736;52.068;6.968;2022-11-20T09:36:27;30.00;;;17.50;;
3443;SDS011;1736;52.068;6.968;2022-11-20T09:38:54;31.60;;;17.13;;
3443;SDS011;1736;52.068;6.968;2022-11-20T09:44:31;35.87;;;18.00;;
3443;SDS011;1736;52.068;6.968;2022-11-20T09:47:08;30.73;;;17.17;;
3443;SDS011;1736;52.068;6.968;2022-11-20T09:49:50;29.77;;;18.60;;
3443;SDS011;1736;52.068;6.968;2022-11-20T09:52:29;31.90;;;17.87;;
3443;SDS011;1736;52.068;6.968;2022-11-20T09:55:03;31.23;;;17.43;;
3443;SDS011;1736;52.068;6.968;2022-11-20T09:57:34;31.20;;;17.43;;
3443;SDS011;1736;52.068;6.968;2022-11-20T10:00:04;28.93;;;16.93;;
3443;SDS011;1736;52.068;6.968;2022-11-20T10:02:39;30.73;;;15.53;;
3443;SDS011;1736;52.068;6.968;2022-11-20T10:05:10;27.30;;;16.10;;
3443;SDS011;1736;52.068;6.968;2022-11-20T10:07:42;26.33;;;16.23;;
3443;SDS011;1736;52.068;6.968;2022-11-20T10:10:14;24.20;;;15.97;;
3443;SDS011;1736;52.068;6.968;2022-11-20T10:12:46;26.87;;;15.00;;
3443;SDS011;1736;52.068;6.968;2022-11-20T10:15:27;27.60;;;15.50;;
3443;SDS011;1736;52.068;6.968;2022-11-20T10:18:11;23.57;;;14.10;;
3443;SDS011;1736;52.068;6.968;2022-11-20T10:20:49;23.60;;;14.33;;
3443;SDS011;1736;52.068;6.968;2022-11-20T10:23:31;34.40;;;15.57;;
3443;SDS011;1736;52.068;6.968;2022-11-20T10:26:16;27.17;;;14.67;;
3443;SDS011;1736;52.068;6.968;2022-11-20T10:28:50;25.60;;;15.03;;
3443;SDS011;1736;52.068;6.968;2022-11-20T10:31:28;35.03;;;15.53;;
3443;SDS011;1736;52.068;6.968;2022-11-20T10:34:01;25.70;;;15.60;;
3443;SDS011;1736;52.068;6.968;2022-11-20T10:36:33;26.90;;;15.50;;
3443;SDS011;1736;52.068;6.968;2022-11-20T10:39:03;26.20;;;15.37;;
3443;SDS011;1736;52.068;6.968;2022-11-20T10:41:38;24.10;;;14.87;;
3443;SDS011;1736;52.068;6.968;2022-11-20T10:44:09;25.40;;;15.10;;
3443;SDS011;1736;52.068;6.968;2022-11-20T10:47:03;27.00;;;15.40;;
3443;SDS011;1736;52.068;6.968;2022-11-20T10:49:31;29.07;;;16.97;;
3443;SDS011;1736;52.068;6.968;2022-11-20T10:52:02;28.33;;;16.90;;
3443;SDS011;1736;52.068;6.968;2022-11-20T10:54:36;30.47;;;15.93;;
3443;SDS011;1736;52.068;6.968;2022-11-20T10:57:13;28.10;;;16.27;;
3443;SDS011;1736;52.068;6.968;2022-11-20T10:59:55;22.80;;;14.87;;
3443;SDS011;1736;52.068;6.968;2022-11-20T11:02:31;32.23;;;15.20;;
3443;SDS011;1736;52.068;6.968;2022-11-20T11:05:04;28.73;;;15.50;;
3443;SDS011;1736;52.068;6.968;2022-11-20T11:07:38;26.83;;;15.37;;
3443;SDS011;1736;52.068;6.968;2022-11-20T11:10:12;24.90;;;14.23;;
3443;SDS011;1736;52.068;6.968;2022-11-20T11:12:43;22.67;;;14.90;;
3443;SDS011;1736;52.068;6.968;2022-11-20T11:15:13;25.20;;;15.20;;
3443;SDS011;1736;52.068;6.968;2022-11-20T11:17:46;23.57;;;14.53;;
3443;SDS011;1736;52.068;6.968;2022-11-20T11:20:18;23.47;;;14.30;;
3443;SDS011;1736;52.068;6.968;2022-11-20T11:22:46;21.13;;;13.50;;
3443;SDS011;1736;52.068;6.968;2022-11-20T11:28:01;21.83;;;12.77;;
3443;SDS011;1736;52.068;6.968;2022-11-20T11:30:29;21.10;;;13.73;;
3443;SDS011;1736;52.068;6.968;2022-11-20T11:33:08;23.20;;;14.13;;
3443;SDS011;1736;52.068;6.968;2022-11-20T11:35:43;20.43;;;12.53;;
3443;SDS011;1736;52.068;6.968;2022-11-20T11:38:12;17.47;;;11.60;;
3443;SDS011;1736;52.068;6.968;2022-11-20T11:40:41;23.30;;;12.10;;
3443;SDS011;1736;52.068;6.968;2022-11-20T11:43:16;20.43;;;12.93;;
3443;SDS011;1736;52.068;6.968;2022-11-20T11:46:03;21.73;;;13.23;;
3443;SDS011;1736;52.068;6.968;2022-11-20T11:48:41;21.37;;;13.70;;
3443;SDS011;1736;52.068;6.968;2022-11-20T11:51:09;20.93;;;14.13;;
3443;SDS011;1736;52.068;6.968;2022-11-20T11:53:36;18.00;;;11.70;;
3443;SDS011;1736;52.068;6.968;2022-11-20T11:56:08;25.73;;;13.37;;
3443;SDS011;1736;52.068;6.968;2022-11-20T11:58:40;19.27;;;12.37;;
3443;SDS011;1736;52.068;6.968;2022-11-20T12:01:14;19.93;;;12.97;;
3443;SDS011;1736;52.068;6.968;2022-11-20T12:03:52;21.30;;;13.33;;
3443;SDS011;1736;52.068;6.968;2022-11-20T12:06:26;20.13;;;12.97;;
3443;SDS011;1736;52.068;6.968;2022-11-20T12:08:57;23.10;;;13.50;;
3443;SDS011;1736;52.068;6.968;2022-11-20T12:11:29;18.63;;;11.27;;
3443;SDS011;1736;52.068;6.968;2022-11-20T12:14:02;21.13;;;12.00;;
3443;SDS011;1736;52.068;6.968;2022-11-20T12:16:36;20.20;;;10.57;;
3443;SDS011;1736;52.068;6.968;2022-11-20T12:19:04;17.53;;;11.63;;
3443;SDS011;1736;52.068;6.968;2022-11-20T12:21:38;20.43;;;11.53;;
3443;SDS011;1736;52.068;6.968;2022-11-20T12:24:21;21.20;;;11.47;;
3443;SDS011;1736;52.068;6.968;2022-11-20T12:27:02;18.10;;;11.40;;
3443;SDS011;1736;52.068;6.968;2022-11-20T12:29:43;18.10;;;11.07;;
3443;SDS011;1736;52.068;6.968;2022-11-20T12:35:25;17.83;;;11.27;;
3443;SDS011;1736;52.068;6.968;2022-11-20T12:38:14;18.70;;;12.50;;
3443;SDS011;1736;52.068;6.968;2022-11-20T12:41:01;19.50;;;12.00;;
3443;SDS011;1736;52.068;6.968;2022-11-20T12:43:36;28.73;;;11.93;;
3443;SDS011;1736;52.068;6.968;2022-11-20T12:46:27;19.13;;;11.83;;
3443;SDS011;1736;52.068;6.968;2022-11-20T12:51:58;20.37;;;11.87;;
3443;SDS011;1736;52.068;6.968;2022-11-20T12:54:46;19.93;;;11.97;;
3443;SDS011;1736;52.068;6.968;2022-11-20T12:57:30;22.30;;;12.70;;
3443;SDS011;1736;52.068;6.968;2022-11-20T13:00:08;21.30;;;13.10;;
3443;SDS011;1736;52.068;6.968;2022-11-20T13:05:41;24.53;;;13.33;;
3443;SDS011;1736;52.068;6.968;2022-11-20T13:08:18;23.30;;;13.97;;
3443;SDS011;1736;52.068;6.968;2022-11-20T13:10:50;21.97;;;12.90;;
3443;SDS011;1736;52.068;6.968;2022-11-20T13:13:25;24.00;;;13.70;;
3443;SDS011;1736;52.068;6.968;2022-11-20T13:16:00;24.00;;;13.50;;
3443;SDS011;1736;52.068;6.968;2022-11-20T13:18:34;24.70;;;14.70;;
3443;SDS011;1736;52.068;6.968;2022-11-20T13:21:13;23.73;;;13.93;;
3443;SDS011;1736;52.068;6.968;2022-11-20T13:23:44;25.17;;;14.90;;
3443;SDS011;1736;52.068;6.968;2022-11-20T13:26:19;22.20;;;13.93;;
3443;SDS011;1736;52.068;6.968;2022-11-20T13:28:47;23.20;;;14.03;;
3443;SDS011;1736;52.068;6.968;2022-11-20T13:31:28;28.57;;;14.20;;
3443;SDS011;1736;52.068;6.968;2022-11-20T13:34:00;28.47;;;15.33;;
3443;SDS011;1736;52.068;6.968;2022-11-20T13:36:29;26.47;;;14.70;;
3443;SDS011;1736;52.068;6.968;2022-11-20T13:38:57;25.67;;;15.03;;
3443;SDS011;1736;52.068;6.968;2022-11-20T13:41:26;26.13;;;14.57;;
3443;SDS011;1736;52.068;6.968;2022-11-20T13:43:54;22.77;;;13.17;;
3443;SDS011;1736;52.068;6.968;2022-11-20T13:46:34;21.97;;;13.23;;
3443;SDS011;1736;52.068;6.968;2022-11-20T13:49:06;27.93;;;13.80;;
3443;SDS011;1736;52.068;6.968;2022-11-20T13:51:35;27.10;;;15.63;;
3443;SDS011;1736;52.068;6.968;2022-11-20T13:57:21;26.00;;;14.40;;
3443;SDS011;1736;52.068;6.968;2022-11-20T14:00:11;30.70;;;16.53;;
3443;SDS011;1736;52.068;6.968;2022-11-20T14:02:40;25.33;;;14.23;;
3443;SDS011;1736;52.068;6.968;2022-11-20T14:05:11;24.90;;;14.57;;
3443;SDS011;1736;52.068;6.968;2022-11-20T14:07:45;24.60;;;13.73;;
3443;SDS011;1736;52.068;6.968;2022-11-20T14:10:19;22.13;;;13.40;;
3443;SDS011;1736;52.068;6.968;2022-11-20T14:12:49;21.87;;;13.30;;
3443;SDS011;1736;52.068;6.968;2022-11-20T14:15:23;27.03;;;15.27;;
3443;SDS011;1736;52.068;6.968;2022-11-20T14:17:51;25.43;;;15.93;;
3443;SDS011;1736;52.068;6.968;2022-11-20T14:20:18;31.50;;;17.83;;
3443;SDS011;1736;52.068;6.968;2022-11-20T14:22:48;25.20;;;15.57;;
3443;SDS011;1736;52.068;6.968;2022-11-20T14:25:19;28.60;;;15.27;;
3443;SDS011;1736;52.068;6.968;2022-11-20T14:27:50;26.60;;;15.40;;
3443;SDS011;1736;52.068;6.968;2022-11-20T14:30:20;24.23;;;14.37;;
3443;SDS011;1736;52.068;6.968;2022-11-20T14:32:48;28.20;;;16.33;;
3443;SDS011;1736;52.068;6.968;2022-11-20T14:35:18;29.03;;;16.60;;
3443;SDS011;1736;52.068;6.968;2022-11-20T14:37:47;25.97;;;16.50;;
3443;SDS011;1736;52.068;6.968;2022-11-20T14:40:25;26.57;;;15.90;;
3443;SDS011;1736;52.068;6.968;2022-11-20T14:42:55;35.80;;;18.83;;
3443;SDS011;1736;52.068;6.968;2022-11-20T14:45:23;30.27;;;17.00;;
3443;SDS011;1736;52.068;6.968;2022-11-20T14:47:51;27.07;;;15.27;;
3443;SDS011;1736;52.068;6.968;2022-11-20T14:50:19;32.93;;;15.53;;
3443;SDS011;1736;52.068;6.968;2022-11-20T14:52:52;28.20;;;15.37;;
3443;SDS011;1736;52.068;6.968;2022-11-20T14:55:27;29.77;;;16.10;;
3443;SDS011;1736;52.068;6.968;2022-11-20T14:57:58;27.60;;;16.00;;
3443;SDS011;1736;52.068;6.968;2022-11-20T15:00:26;27.00;;;14.57;;
3443;SDS011;1736;52.068;6.968;2022-11-20T15:02:53;26.77;;;15.83;;
3443;SDS011;1736;52.068;6.968;2022-11-20T15:05:21;31.83;;;16.83;;
3443;SDS011;1736;52.068;6.968;2022-11-20T15:07:50;27.53;;;16.60;;
3443;SDS011;1736;52.068;6.968;2022-11-20T15:10:21;29.37;;;16.33;;
3443;SDS011;1736;52.068;6.968;2022-11-20T15:12:49;25.37;;;14.90;;
3443;SDS011;1736;52.068;6.968;2022-11-20T15:15:21;27.67;;;15.67;;
3443;SDS011;1736;52.068;6.968;2022-11-20T15:17:51;23.60;;;14.73;;
3443;SDS011;1736;52.068;6.968;2022-11-20T15:20:18;25.37;;;14.77;;
3443;SDS011;1736;52.068;6.968;2022-11-20T15:22:44;27.80;;;16.13;;